Terminal Aerodrome Forecast
Issued by NWS

Home | Current Version | Previous Version | Text Only | Print | Product List | Glossary On
Versions: 1 2 3 4 5 6 7 8 9 10 11 12 13 14 15 16 17 18 19 20 21 22 23 24 25 26 27 28 29 30 31 32
000
FTUS45 KREV 080538
TAFRNO
TAF
KRNO 080538Z 0806/0906 27010KT P6SM -RA SCT025 OVC035 WS020/26045KT
      TEMPO 0806/0810 4SM -RASN BKN020 OVC035
     FM081000 20010KT P6SM VCSH SCT035 BKN060
     FM082300 34003KT P6SM SCT035=

USA.gov is the U.S. government's official web portal to all federal, state and local government web resources and services.